sensor_id;sensor_type;location;lat;lon;timestamp;P1;durP1;ratioP1;P2;durP2;ratioP2
18302;SDS011;9277;37.980;23.748;2023-11-18T00:01:24;3.20;;;2.15;;
18302;SDS011;9277;37.980;23.748;2023-11-18T00:03:52;2.97;;;2.40;;
18302;SDS011;9277;37.980;23.748;2023-11-18T00:06:20;7.03;;;2.40;;
18302;SDS011;9277;37.980;23.748;2023-11-18T00:08:48;7.18;;;2.70;;
18302;SDS011;9277;37.980;23.748;2023-11-18T00:11:15;5.93;;;2.28;;
18302;SDS011;9277;37.980;23.748;2023-11-18T00:13:44;4.03;;;2.50;;
18302;SDS011;9277;37.980;23.748;2023-11-18T00:16:12;6.32;;;2.58;;
18302;SDS011;9277;37.980;23.748;2023-11-18T00:18:41;4.55;;;2.72;;
18302;SDS011;9277;37.980;23.748;2023-11-18T00:21:09;3.58;;;2.30;;
18302;SDS011;9277;37.980;23.748;2023-11-18T00:23:37;4.63;;;2.88;;
18302;SDS011;9277;37.980;23.748;2023-11-18T00:26:04;8.15;;;2.90;;
18302;SDS011;9277;37.980;23.748;2023-11-18T00:28:32;3.63;;;2.30;;
18302;SDS011;9277;37.980;23.748;2023-11-18T00:30:59;6.35;;;2.63;;
18302;SDS011;9277;37.980;23.748;2023-11-18T00:33:26;9.25;;;3.20;;
18302;SDS011;9277;37.980;23.748;2023-11-18T00:35:53;6.45;;;2.50;;
18302;SDS011;9277;37.980;23.748;2023-11-18T00:38:21;8.25;;;3.03;;
18302;SDS011;9277;37.980;23.748;2023-11-18T00:40:48;6.75;;;2.40;;
18302;SDS011;9277;37.980;23.748;2023-11-18T00:43:15;3.03;;;2.10;;
18302;SDS011;9277;37.980;23.748;2023-11-18T00:45:42;5.80;;;2.40;;
18302;SDS011;9277;37.980;23.748;2023-11-18T00:48:09;8.43;;;2.53;;
18302;SDS011;9277;37.980;23.748;2023-11-18T00:50:36;5.55;;;2.40;;
18302;SDS011;9277;37.980;23.748;2023-11-18T00:53:03;2.60;;;2.40;;
18302;SDS011;9277;37.980;23.748;2023-11-18T00:55:32;2.35;;;2.15;;
18302;SDS011;9277;37.980;23.748;2023-11-18T00:57:59;5.15;;;2.10;;
18302;SDS011;9277;37.980;23.748;2023-11-18T01:00:26;6.50;;;2.58;;
18302;SDS011;9277;37.980;23.748;2023-11-18T01:02:53;7.03;;;2.30;;
18302;SDS011;9277;37.980;23.748;2023-11-18T01:05:21;6.30;;;2.00;;
18302;SDS011;9277;37.980;23.748;2023-11-18T01:07:48;5.88;;;2.35;;
18302;SDS011;9277;37.980;23.748;2023-11-18T01:10:15;4.40;;;2.40;;
18302;SDS011;9277;37.980;23.748;2023-11-18T01:12:45;3.03;;;2.35;;
18302;SDS011;9277;37.980;23.748;2023-11-18T01:15:12;4.55;;;1.92;;
18302;SDS011;9277;37.980;23.748;2023-11-18T01:17:39;7.25;;;2.08;;
18302;SDS011;9277;37.980;23.748;2023-11-18T01:20:07;4.53;;;1.65;;
18302;SDS011;9277;37.980;23.748;2023-11-18T01:22:36;6.22;;;1.80;;
18302;SDS011;9277;37.980;23.748;2023-11-18T01:25:05;3.15;;;1.63;;
18302;SDS011;9277;37.980;23.748;2023-11-18T01:27:34;7.63;;;1.60;;
18302;SDS011;9277;37.980;23.748;2023-11-18T01:30:02;4.40;;;2.28;;
18302;SDS011;9277;37.980;23.748;2023-11-18T01:32:30;5.15;;;1.95;;
18302;SDS011;9277;37.980;23.748;2023-11-18T01:34:57;1.70;;;1.60;;
18302;SDS011;9277;37.980;23.748;2023-11-18T01:37:24;1.63;;;1.52;;
18302;SDS011;9277;37.980;23.748;2023-11-18T01:39:51;4.35;;;1.45;;
18302;SDS011;9277;37.980;23.748;2023-11-18T01:42:18;5.38;;;1.58;;
18302;SDS011;9277;37.980;23.748;2023-11-18T01:44:45;5.00;;;1.65;;
18302;SDS011;9277;37.980;23.748;2023-11-18T01:47:13;4.72;;;1.30;;
18302;SDS011;9277;37.980;23.748;2023-11-18T01:49:41;4.57;;;1.65;;
18302;SDS011;9277;37.980;23.748;2023-11-18T01:52:08;1.50;;;1.40;;
18302;SDS011;9277;37.980;23.748;2023-11-18T01:54:37;9.98;;;1.63;;
18302;SDS011;9277;37.980;23.748;2023-11-18T01:57:05;2.85;;;1.80;;
18302;SDS011;9277;37.980;23.748;2023-11-18T01:59:34;3.47;;;1.67;;
18302;SDS011;9277;37.980;23.748;2023-11-18T02:02:03;3.78;;;1.95;;
18302;SDS011;9277;37.980;23.748;2023-11-18T02:04:32;6.30;;;1.75;;
18302;SDS011;9277;37.980;23.748;2023-11-18T02:06:59;3.42;;;1.58;;
18302;SDS011;9277;37.980;23.748;2023-11-18T02:09:29;5.25;;;1.60;;
18302;SDS011;9277;37.980;23.748;2023-11-18T02:11:57;4.30;;;1.65;;
18302;SDS011;9277;37.980;23.748;2023-11-18T02:14:29;2.25;;;1.40;;
18302;SDS011;9277;37.980;23.748;2023-11-18T02:16:59;5.95;;;1.52;;
18302;SDS011;9277;37.980;23.748;2023-11-18T02:19:26;4.03;;;1.70;;
18302;SDS011;9277;37.980;23.748;2023-11-18T02:21:54;2.00;;;1.38;;
18302;SDS011;9277;37.980;23.748;2023-11-18T02:24:25;3.00;;;1.65;;
18302;SDS011;9277;37.980;23.748;2023-11-18T02:26:56;2.15;;;1.50;;
18302;SDS011;9277;37.980;23.748;2023-11-18T02:29:23;4.82;;;1.50;;
18302;SDS011;9277;37.980;23.748;2023-11-18T02:31:51;8.65;;;1.83;;
18302;SDS011;9277;37.980;23.748;2023-11-18T02:34:22;1.80;;;1.63;;
18302;SDS011;9277;37.980;23.748;2023-11-18T02:36:51;3.00;;;1.40;;
18302;SDS011;9277;37.980;23.748;2023-11-18T02:39:20;1.60;;;1.38;;
18302;SDS011;9277;37.980;23.748;2023-11-18T02:41:48;4.53;;;1.90;;
18302;SDS011;9277;37.980;23.748;2023-11-18T02:44:19;2.03;;;1.42;;
18302;SDS011;9277;37.980;23.748;2023-11-18T02:46:48;3.95;;;1.85;;
18302;SDS011;9277;37.980;23.748;2023-11-18T02:49:15;3.22;;;1.58;;
18302;SDS011;9277;37.980;23.748;2023-11-18T02:51:42;5.93;;;1.70;;
18302;SDS011;9277;37.980;23.748;2023-11-18T02:54:12;1.60;;;1.50;;
18302;SDS011;9277;37.980;23.748;2023-11-18T02:56:41;1.98;;;1.48;;
18302;SDS011;9277;37.980;23.748;2023-11-18T02:59:08;3.40;;;1.73;;
18302;SDS011;9277;37.980;23.748;2023-11-18T03:01:36;6.22;;;1.60;;
18302;SDS011;9277;37.980;23.748;2023-11-18T03:04:04;7.43;;;1.63;;
18302;SDS011;9277;37.980;23.748;2023-11-18T03:06:31;3.45;;;1.85;;
18302;SDS011;9277;37.980;23.748;2023-11-18T03:08:59;3.45;;;2.33;;
18302;SDS011;9277;37.980;23.748;2023-11-18T03:11:26;2.85;;;1.73;;
18302;SDS011;9277;37.980;23.748;2023-11-18T03:13:56;2.58;;;1.60;;
18302;SDS011;9277;37.980;23.748;2023-11-18T03:16:23;2.88;;;1.52;;
18302;SDS011;9277;37.980;23.748;2023-11-18T03:18:52;2.50;;;1.48;;
18302;SDS011;9277;37.980;23.748;2023-11-18T03:21:20;3.72;;;1.83;;
18302;SDS011;9277;37.980;23.748;2023-11-18T03:23:47;3.28;;;1.80;;
18302;SDS011;9277;37.980;23.748;2023-11-18T03:26:14;3.42;;;2.15;;
18302;SDS011;9277;37.980;23.748;2023-11-18T03:28:40;5.85;;;2.15;;
18302;SDS011;9277;37.980;23.748;2023-11-18T03:31:08;6.68;;;2.28;;
18302;SDS011;9277;37.980;23.748;2023-11-18T03:33:34;4.95;;;2.15;;
18302;SDS011;9277;37.980;23.748;2023-11-18T03:36:05;4.07;;;1.88;;
18302;SDS011;9277;37.980;23.748;2023-11-18T03:38:32;4.63;;;2.13;;
18302;SDS011;9277;37.980;23.748;2023-11-18T03:41:00;5.68;;;2.00;;
18302;SDS011;9277;37.980;23.748;2023-11-18T03:43:28;4.65;;;2.45;;
18302;SDS011;9277;37.980;23.748;2023-11-18T03:45:55;4.30;;;2.30;;
18302;SDS011;9277;37.980;23.748;2023-11-18T03:48:22;3.53;;;2.20;;
18302;SDS011;9277;37.980;23.748;2023-11-18T03:50:50;6.05;;;2.13;;
18302;SDS011;9277;37.980;23.748;2023-11-18T03:53:22;8.35;;;2.35;;
18302;SDS011;9277;37.980;23.748;2023-11-18T03:55:49;5.50;;;2.40;;
18302;SDS011;9277;37.980;23.748;2023-11-18T03:58:17;3.70;;;2.30;;
18302;SDS011;9277;37.980;23.748;2023-11-18T04:00:44;6.05;;;2.63;;
18302;SDS011;9277;37.980;23.748;2023-11-18T04:03:11;10.98;;;2.20;;
18302;SDS011;9277;37.980;23.748;2023-11-18T04:05:37;3.45;;;1.98;;
18302;SDS011;9277;37.980;23.748;2023-11-18T04:08:06;2.03;;;1.80;;
18302;SDS011;9277;37.980;23.748;2023-11-18T04:10:36;4.43;;;2.00;;
18302;SDS011;9277;37.980;23.748;2023-11-18T04:13:03;5.28;;;1.45;;
18302;SDS011;9277;37.980;23.748;2023-11-18T04:15:30;13.55;;;2.65;;
18302;SDS011;9277;37.980;23.748;2023-11-18T04:17:57;6.72;;;1.98;;
18302;SDS011;9277;37.980;23.748;2023-11-18T04:20:24;4.72;;;1.48;;
18302;SDS011;9277;37.980;23.748;2023-11-18T04:22:52;6.22;;;1.33;;
18302;SDS011;9277;37.980;23.748;2023-11-18T04:25:19;4.82;;;1.95;;
18302;SDS011;9277;37.980;23.748;2023-11-18T04:27:48;8.07;;;1.67;;
18302;SDS011;9277;37.980;23.748;2023-11-18T04:30:16;3.95;;;2.13;;
18302;SDS011;9277;37.980;23.748;2023-11-18T04:32:43;5.32;;;1.80;;
18302;SDS011;9277;37.980;23.748;2023-11-18T04:35:10;8.25;;;1.80;;
18302;SDS011;9277;37.980;23.748;2023-11-18T04:37:37;5.68;;;1.60;;
18302;SDS011;9277;37.980;23.748;2023-11-18T04:40:08;6.63;;;1.80;;
18302;SDS011;9277;37.980;23.748;2023-11-18T04:42:37;6.13;;;1.75;;
18302;SDS011;9277;37.980;23.748;2023-11-18T04:45:07;6.30;;;1.90;;
18302;SDS011;9277;37.980;23.748;2023-11-18T04:47:35;8.13;;;1.83;;
18302;SDS011;9277;37.980;23.748;2023-11-18T04:50:04;9.93;;;2.20;;
18302;SDS011;9277;37.980;23.748;2023-11-18T04:52:31;9.13;;;1.65;;
18302;SDS011;9277;37.980;23.748;2023-11-18T04:55:00;6.93;;;1.90;;
18302;SDS011;9277;37.980;23.748;2023-11-18T04:57:27;15.70;;;1.67;;
18302;SDS011;9277;37.980;23.748;2023-11-18T04:59:54;11.50;;;2.45;;
18302;SDS011;9277;37.980;23.748;2023-11-18T05:02:23;6.30;;;1.45;;
18302;SDS011;9277;37.980;23.748;2023-11-18T05:04:49;6.13;;;1.38;;
18302;SDS011;9277;37.980;23.748;2023-11-18T05:07:16;6.65;;;1.70;;
18302;SDS011;9277;37.980;23.748;2023-11-18T05:09:43;8.60;;;1.80;;
18302;SDS011;9277;37.980;23.748;2023-11-18T05:12:10;9.68;;;1.70;;
18302;SDS011;9277;37.980;23.748;2023-11-18T05:14:37;8.25;;;2.03;;
18302;SDS011;9277;37.980;23.748;2023-11-18T05:17:04;6.50;;;1.58;;
18302;SDS011;9277;37.980;23.748;2023-11-18T05:19:33;6.90;;;1.52;;
18302;SDS011;9277;37.980;23.748;2023-11-18T05:22:00;11.18;;;2.80;;
18302;SDS011;9277;37.980;23.748;2023-11-18T05:24:27;6.43;;;1.73;;
18302;SDS011;9277;37.980;23.748;2023-11-18T05:26:54;7.68;;;1.58;;
18302;SDS011;9277;37.980;23.748;2023-11-18T05:29:21;7.60;;;1.77;;
18302;SDS011;9277;37.980;23.748;2023-11-18T05:31:50;6.30;;;1.75;;
18302;SDS011;9277;37.980;23.748;2023-11-18T05:34:17;9.27;;;2.22;;
18302;SDS011;9277;37.980;23.748;2023-11-18T05:36:48;6.78;;;1.60;;
18302;SDS011;9277;37.980;23.748;2023-11-18T05:39:19;8.27;;;1.77;;
18302;SDS011;9277;37.980;23.748;2023-11-18T05:41:46;6.30;;;1.83;;
18302;SDS011;9277;37.980;23.748;2023-11-18T05:44:15;5.78;;;1.92;;
18302;SDS011;9277;37.980;23.748;2023-11-18T05:46:44;8.20;;;1.73;;
18302;SDS011;9277;37.980;23.748;2023-11-18T05:49:12;11.25;;;2.47;;
18302;SDS011;9277;37.980;23.748;2023-11-18T05:51:39;7.63;;;1.40;;
18302;SDS011;9277;37.980;23.748;2023-11-18T05:54:08;8.55;;;1.52;;
18302;SDS011;9277;37.980;23.748;2023-11-18T05:56:35;6.55;;;1.50;;
18302;SDS011;9277;37.980;23.748;2023-11-18T05:59:02;3.30;;;1.77;;
18302;SDS011;9277;37.980;23.748;2023-11-18T06:01:29;4.93;;;1.38;;
18302;SDS011;9277;37.980;23.748;2023-11-18T06:03:56;5.07;;;1.65;;
18302;SDS011;9277;37.980;23.748;2023-11-18T06:06:24;4.40;;;1.40;;
18302;SDS011;9277;37.980;23.748;2023-11-18T06:08:51;7.88;;;1.38;;
18302;SDS011;9277;37.980;23.748;2023-11-18T06:11:20;2.13;;;1.30;;
18302;SDS011;9277;37.980;23.748;2023-11-18T06:13:49;3.95;;;1.33;;
18302;SDS011;9277;37.980;23.748;2023-11-18T06:16:16;5.88;;;1.20;;
18302;SDS011;9277;37.980;23.748;2023-11-18T06:18:45;4.88;;;1.50;;
18302;SDS011;9277;37.980;23.748;2023-11-18T06:21:13;6.45;;;1.35;;
18302;SDS011;9277;37.980;23.748;2023-11-18T06:23:40;8.80;;;1.45;;
18302;SDS011;9277;37.980;23.748;2023-11-18T06:26:07;7.20;;;1.75;;
18302;SDS011;9277;37.980;23.748;2023-11-18T06:28:37;4.50;;;1.40;;
18302;SDS011;9277;37.980;23.748;2023-11-18T06:31:04;5.43;;;1.10;;
18302;SDS011;9277;37.980;23.748;2023-11-18T06:33:36;4.90;;;1.48;;
18302;SDS011;9277;37.980;23.748;2023-11-18T06:36:03;10.55;;;1.55;;
18302;SDS011;9277;37.980;23.748;2023-11-18T06:38:30;8.30;;;1.67;;
18302;SDS011;9277;37.980;23.748;2023-11-18T06:40:58;10.13;;;1.40;;
18302;SDS011;9277;37.980;23.748;2023-11-18T06:43:28;13.05;;;1.98;;
18302;SDS011;9277;37.980;23.748;2023-11-18T06:46:03;7.13;;;1.85;;
18302;SDS011;9277;37.980;23.748;2023-11-18T06:48:29;9.23;;;1.63;;
18302;SDS011;9277;37.980;23.748;2023-11-18T06:50:57;6.70;;;1.50;;
18302;SDS011;9277;37.980;23.748;2023-11-18T06:53:24;4.90;;;1.63;;
18302;SDS011;9277;37.980;23.748;2023-11-18T06:55:51;8.90;;;1.80;;
18302;SDS011;9277;37.980;23.748;2023-11-18T06:58:18;4.65;;;1.17;;
18302;SDS011;9277;37.980;23.748;2023-11-18T07:00:45;5.88;;;1.50;;
18302;SDS011;9277;37.980;23.748;2023-11-18T07:03:14;5.03;;;1.40;;
18302;SDS011;9277;37.980;23.748;2023-11-18T07:05:41;4.70;;;1.08;;
18302;SDS011;9277;37.980;23.748;2023-11-18T07:08:09;4.35;;;1.15;;
18302;SDS011;9277;37.980;23.748;2023-11-18T07:10:38;8.20;;;1.33;;
18302;SDS011;9277;37.980;23.748;2023-11-18T07:13:05;4.80;;;1.50;;
18302;SDS011;9277;37.980;23.748;2023-11-18T07:15:33;4.88;;;0.90;;
18302;SDS011;9277;37.980;23.748;2023-11-18T07:18:01;7.50;;;1.63;;
18302;SDS011;9277;37.980;23.748;2023-11-18T07:20:29;6.72;;;1.20;;
18302;SDS011;9277;37.980;23.748;2023-11-18T07:22:56;6.40;;;1.52;;
18302;SDS011;9277;37.980;23.748;2023-11-18T07:25:23;2.72;;;1.15;;
18302;SDS011;9277;37.980;23.748;2023-11-18T07:27:50;5.53;;;1.38;;
18302;SDS011;9277;37.980;23.748;2023-11-18T07:30:17;0.82;;;0.82;;
18302;SDS011;9277;37.980;23.748;2023-11-18T07:32:45;0.93;;;0.80;;
18302;SDS011;9277;37.980;23.748;2023-11-18T07:35:12;0.98;;;0.98;;
18302;SDS011;9277;37.980;23.748;2023-11-18T07:37:40;0.75;;;0.75;;
18302;SDS011;9277;37.980;23.748;2023-11-18T07:40:07;1.73;;;0.70;;
18302;SDS011;9277;37.980;23.748;2023-11-18T07:42:37;0.68;;;0.68;;
18302;SDS011;9277;37.980;23.748;2023-11-18T07:45:05;1.63;;;0.63;;
18302;SDS011;9277;37.980;23.748;2023-11-18T07:47:42;0.70;;;0.70;;
18302;SDS011;9277;37.980;23.748;2023-11-18T07:50:09;0.55;;;0.55;;
18302;SDS011;9277;37.980;23.748;2023-11-18T07:52:43;3.85;;;0.80;;
18302;SDS011;9277;37.980;23.748;2023-11-18T07:55:09;2.38;;;0.60;;
18302;SDS011;9277;37.980;23.748;2023-11-18T07:57:38;0.70;;;0.70;;
18302;SDS011;9277;37.980;23.748;2023-11-18T08:00:05;1.15;;;0.70;;
18302;SDS011;9277;37.980;23.748;2023-11-18T08:02:34;1.33;;;0.68;;
18302;SDS011;9277;37.980;23.748;2023-11-18T08:05:04;0.60;;;0.60;;
18302;SDS011;9277;37.980;23.748;2023-11-18T08:07:34;1.63;;;0.70;;
18302;SDS011;9277;37.980;23.748;2023-11-18T08:10:03;1.20;;;0.75;;
18302;SDS011;9277;37.980;23.748;2023-11-18T08:12:30;0.63;;;0.60;;
18302;SDS011;9277;37.980;23.748;2023-11-18T08:14:57;0.80;;;0.80;;
18302;SDS011;9277;37.980;23.748;2023-11-18T08:17:24;0.57;;;0.57;;
18302;SDS011;9277;37.980;23.748;2023-11-18T08:19:51;2.75;;;1.05;;
18302;SDS011;9277;37.980;23.748;2023-11-18T08:22:19;5.20;;;0.70;;
18302;SDS011;9277;37.980;23.748;2023-11-18T08:24:49;0.80;;;0.80;;
18302;SDS011;9277;37.980;23.748;2023-11-18T08:27:17;0.85;;;0.70;;
18302;SDS011;9277;37.980;23.748;2023-11-18T08:29:45;3.00;;;1.00;;
18302;SDS011;9277;37.980;23.748;2023-11-18T08:32:14;1.35;;;0.70;;
18302;SDS011;9277;37.980;23.748;2023-11-18T08:34:40;12.18;;;0.95;;
18302;SDS011;9277;37.980;23.748;2023-11-18T08:37:08;2.92;;;0.70;;
18302;SDS011;9277;37.980;23.748;2023-11-18T08:39:36;1.02;;;0.75;;
18302;SDS011;9277;37.980;23.748;2023-11-18T08:42:03;1.20;;;0.82;;
18302;SDS011;9277;37.980;23.748;2023-11-18T08:44:34;6.30;;;0.80;;
18302;SDS011;9277;37.980;23.748;2023-11-18T08:47:03;0.80;;;0.80;;
18302;SDS011;9277;37.980;23.748;2023-11-18T08:49:33;0.73;;;0.63;;
18302;SDS011;9277;37.980;23.748;2023-11-18T08:52:02;0.60;;;0.60;;
18302;SDS011;9277;37.980;23.748;2023-11-18T08:54:35;0.50;;;0.50;;
18302;SDS011;9277;37.980;23.748;2023-11-18T08:57:25;0.52;;;0.50;;
18302;SDS011;9277;37.980;23.748;2023-11-18T08:59:54;1.85;;;0.80;;
18302;SDS011;9277;37.980;23.748;2023-11-18T09:02:24;0.65;;;0.65;;
18302;SDS011;9277;37.980;23.748;2023-11-18T09:04:50;0.60;;;0.60;;
18302;SDS011;9277;37.980;23.748;2023-11-18T09:07:20;0.60;;;0.60;;
18302;SDS011;9277;37.980;23.748;2023-11-18T09:09:47;0.50;;;0.50;;
18302;SDS011;9277;37.980;23.748;2023-11-18T09:12:17;0.60;;;0.60;;
18302;SDS011;9277;37.980;23.748;2023-11-18T09:14:45;0.73;;;0.73;;
18302;SDS011;9277;37.980;23.748;2023-11-18T09:17:17;1.15;;;0.63;;
18302;SDS011;9277;37.980;23.748;2023-11-18T09:19:47;0.60;;;0.60;;
18302;SDS011;9277;37.980;23.748;2023-11-18T09:22:18;0.63;;;0.63;;
18302;SDS011;9277;37.980;23.748;2023-11-18T09:24:45;1.50;;;0.60;;
18302;SDS011;9277;37.980;23.748;2023-11-18T09:27:14;0.55;;;0.55;;
18302;SDS011;9277;37.980;23.748;2023-11-18T09:29:41;0.60;;;0.60;;
18302;SDS011;9277;37.980;23.748;2023-11-18T09:32:09;0.60;;;0.60;;
18302;SDS011;9277;37.980;23.748;2023-11-18T09:34:41;1.17;;;0.98;;
18302;SDS011;9277;37.980;23.748;2023-11-18T09:37:08;0.70;;;0.70;;
18302;SDS011;9277;37.980;23.748;2023-11-18T09:39:38;0.85;;;0.85;;
18302;SDS011;9277;37.980;23.748;2023-11-18T09:42:10;0.80;;;0.80;;
18302;SDS011;9277;37.980;23.748;2023-11-18T09:44:44;0.68;;;0.60;;
18302;SDS011;9277;37.980;23.748;2023-11-18T09:47:14;2.85;;;1.35;;
18302;SDS011;9277;37.980;23.748;2023-11-18T09:49:51;0.68;;;0.68;;
18302;SDS011;9277;37.980;23.748;2023-11-18T09:52:19;0.70;;;0.70;;
18302;SDS011;9277;37.980;23.748;2023-11-18T09:54:50;3.67;;;0.70;;
18302;SDS011;9277;37.980;23.748;2023-11-18T09:57:26;1.75;;;0.70;;
18302;SDS011;9277;37.980;23.748;2023-11-18T10:00:00;0.60;;;0.60;;
18302;SDS011;9277;37.980;23.748;2023-11-18T10:02:37;0.60;;;0.60;;
18302;SDS011;9277;37.980;23.748;2023-11-18T10:05:07;0.85;;;0.70;;
18302;SDS011;9277;37.980;23.748;2023-11-18T10:07:38;0.73;;;0.70;;
18302;SDS011;9277;37.980;23.748;2023-11-18T10:10:06;0.93;;;0.65;;
18302;SDS011;9277;37.980;23.748;2023-11-18T10:12:40;0.75;;;0.50;;
18302;SDS011;9277;37.980;23.748;2023-11-18T10:15:08;7.93;;;1.50;;
18302;SDS011;9277;37.980;23.748;2023-11-18T10:17:37;0.60;;;0.60;;
18302;SDS011;9277;37.980;23.748;2023-11-18T10:20:21;0.60;;;0.60;;
18302;SDS011;9277;37.980;23.748;2023-11-18T10:25:32;0.60;;;0.60;;
18302;SDS011;9277;37.980;23.748;2023-11-18T10:28:04;0.60;;;0.60;;
18302;SDS011;9277;37.980;23.748;2023-11-18T10:30:31;1.20;;;0.93;;
18302;SDS011;9277;37.980;23.748;2023-11-18T10:32:58;1.40;;;0.68;;
18302;SDS011;9277;37.980;23.748;2023-11-18T10:35:33;0.50;;;0.50;;
18302;SDS011;9277;37.980;23.748;2023-11-18T10:38:01;3.70;;;0.70;;
18302;SDS011;9277;37.980;23.748;2023-11-18T10:40:31;0.65;;;0.65;;
18302;SDS011;9277;37.980;23.748;2023-11-18T10:43:00;1.77;;;0.70;;
18302;SDS011;9277;37.980;23.748;2023-11-18T10:45:27;0.75;;;0.75;;
18302;SDS011;9277;37.980;23.748;2023-11-18T10:47:55;5.38;;;0.77;;
18302;SDS011;9277;37.980;23.748;2023-11-18T10:50:22;0.63;;;0.63;;
18302;SDS011;9277;37.980;23.748;2023-11-18T10:52:58;0.50;;;0.50;;
18302;SDS011;9277;37.980;23.748;2023-11-18T10:55:34;0.65;;;0.65;;
18302;SDS011;9277;37.980;23.748;2023-11-18T10:58:01;1.05;;;0.70;;
18302;SDS011;9277;37.980;23.748;2023-11-18T11:00:29;2.67;;;0.70;;
18302;SDS011;9277;37.980;23.748;2023-11-18T11:03:12;0.77;;;0.65;;
18302;SDS011;9277;37.980;23.748;2023-11-18T11:05:39;1.33;;;0.80;;
18302;SDS011;9277;37.980;23.748;2023-11-18T11:08:10;2.70;;;0.90;;
18302;SDS011;9277;37.980;23.748;2023-11-18T11:10:39;0.68;;;0.63;;
18302;SDS011;9277;37.980;23.748;2023-11-18T11:13:07;0.60;;;0.60;;
18302;SDS011;9277;37.980;23.748;2023-11-18T11:15:40;0.70;;;0.70;;
18302;SDS011;9277;37.980;23.748;2023-11-18T11:18:08;7.25;;;1.17;;
18302;SDS011;9277;37.980;23.748;2023-11-18T11:20:42;2.55;;;0.80;;
18302;SDS011;9277;37.980;23.748;2023-11-18T11:23:18;0.70;;;0.70;;
18302;SDS011;9277;37.980;23.748;2023-11-18T11:25:50;0.60;;;0.60;;
18302;SDS011;9277;37.980;23.748;2023-11-18T11:28:22;0.82;;;0.77;;
18302;SDS011;9277;37.980;23.748;2023-11-18T11:30:50;0.80;;;0.80;;
18302;SDS011;9277;37.980;23.748;2023-11-18T11:33:21;0.70;;;0.70;;
18302;SDS011;9277;37.980;23.748;2023-11-18T11:35:53;0.98;;;0.80;;
18302;SDS011;9277;37.980;23.748;2023-11-18T11:38:24;0.70;;;0.70;;
18302;SDS011;9277;37.980;23.748;2023-11-18T11:40:52;2.13;;;1.08;;
18302;SDS011;9277;37.980;23.748;2023-11-18T11:43:20;1.40;;;0.80;;
18302;SDS011;9277;37.980;23.748;2023-11-18T11:45:48;1.00;;;1.00;;
18302;SDS011;9277;37.980;23.748;2023-11-18T11:48:17;0.70;;;0.70;;
18302;SDS011;9277;37.980;23.748;2023-11-18T11:51:00;0.80;;;0.80;;
18302;SDS011;9277;37.980;23.748;2023-11-18T11:53:32;0.90;;;0.90;;
18302;SDS011;9277;37.980;23.748;2023-11-18T11:56:01;1.08;;;0.80;;
18302;SDS011;9277;37.980;23.748;2023-11-18T11:58:33;0.73;;;0.73;;
18302;SDS011;9277;37.980;23.748;2023-11-18T12:01:02;2.83;;;1.13;;
18302;SDS011;9277;37.980;23.748;2023-11-18T12:03:33;2.45;;;0.90;;
18302;SDS011;9277;37.980;23.748;2023-11-18T12:06:08;0.80;;;0.80;;
18302;SDS011;9277;37.980;23.748;2023-11-18T12:08:38;0.80;;;0.80;;
18302;SDS011;9277;37.980;23.748;2023-11-18T12:11:07;0.80;;;0.80;;
18302;SDS011;9277;37.980;23.748;2023-11-18T12:13:37;0.90;;;0.88;;
18302;SDS011;9277;37.980;23.748;2023-11-18T12:16:10;0.70;;;0.70;;
18302;SDS011;9277;37.980;23.748;2023-11-18T12:18:42;1.77;;;0.85;;
18302;SDS011;9277;37.980;23.748;2023-11-18T12:21:09;1.65;;;0.98;;
18302;SDS011;9277;37.980;23.748;2023-11-18T12:26:41;0.70;;;0.70;;
18302;SDS011;9277;37.980;23.748;2023-11-18T12:31:52;0.70;;;0.70;;
18302;SDS011;9277;37.980;23.748;2023-11-18T12:34:19;0.60;;;0.60;;
18302;SDS011;9277;37.980;23.748;2023-11-18T12:37:03;1.42;;;0.80;;
18302;SDS011;9277;37.980;23.748;2023-11-18T12:42:36;1.65;;;0.90;;
18302;SDS011;9277;37.980;23.748;2023-11-18T12:45:21;0.95;;;0.90;;
18302;SDS011;9277;37.980;23.748;2023-11-18T12:47:52;3.00;;;0.75;;
18302;SDS011;9277;37.980;23.748;2023-11-18T12:50:23;0.65;;;0.65;;
18302;SDS011;9277;37.980;23.748;2023-11-18T12:52:58;2.10;;;0.75;;
18302;SDS011;9277;37.980;23.748;2023-11-18T12:55:25;0.95;;;0.90;;
18302;SDS011;9277;37.980;23.748;2023-11-18T12:57:56;0.82;;;0.82;;
18302;SDS011;9277;37.980;23.748;2023-11-18T13:00:25;1.10;;;0.90;;
18302;SDS011;9277;37.980;23.748;2023-11-18T13:02:53;2.50;;;0.80;;
18302;SDS011;9277;37.980;23.748;2023-11-18T13:05:20;0.73;;;0.73;;
18302;SDS011;9277;37.980;23.748;2023-11-18T13:07:47;1.45;;;0.73;;
18302;SDS011;9277;37.980;23.748;2023-11-18T13:10:14;0.70;;;0.70;;
18302;SDS011;9277;37.980;23.748;2023-11-18T13:12:42;0.70;;;0.70;;
18302;SDS011;9277;37.980;23.748;2023-11-18T13:15:12;0.82;;;0.82;;
18302;SDS011;9277;37.980;23.748;2023-11-18T13:17:41;1.48;;;0.80;;
18302;SDS011;9277;37.980;23.748;2023-11-18T13:20:12;2.25;;;0.82;;
18302;SDS011;9277;37.980;23.748;2023-11-18T13:22:40;0.88;;;0.75;;
18302;SDS011;9277;37.980;23.748;2023-11-18T13:25:08;0.70;;;0.70;;
18302;SDS011;9277;37.980;23.748;2023-11-18T13:27:35;0.70;;;0.70;;
18302;SDS011;9277;37.980;23.748;2023-11-18T13:30:04;7.00;;;0.93;;
18302;SDS011;9277;37.980;23.748;2023-11-18T13:32:41;1.42;;;0.70;;
18302;SDS011;9277;37.980;23.748;2023-11-18T13:35:08;0.60;;;0.60;;
18302;SDS011;9277;37.980;23.748;2023-11-18T13:37:36;0.98;;;0.88;;
18302;SDS011;9277;37.980;23.748;2023-11-18T13:40:07;4.20;;;0.90;;
18302;SDS011;9277;37.980;23.748;2023-11-18T13:42:35;0.75;;;0.75;;
18302;SDS011;9277;37.980;23.748;2023-11-18T13:45:08;12.65;;;0.80;;
18302;SDS011;9277;37.980;23.748;2023-11-18T13:47:37;0.75;;;0.75;;
18302;SDS011;9277;37.980;23.748;2023-11-18T13:50:07;2.88;;;0.77;;
18302;SDS011;9277;37.980;23.748;2023-11-18T13:52:35;0.60;;;0.60;;
18302;SDS011;9277;37.980;23.748;2023-11-18T13:55:04;0.80;;;0.80;;
18302;SDS011;9277;37.980;23.748;2023-11-18T13:57:34;1.10;;;0.70;;
18302;SDS011;9277;37.980;23.748;2023-11-18T14:00:02;0.85;;;0.85;;
18302;SDS011;9277;37.980;23.748;2023-11-18T14:02:38;0.80;;;0.80;;
18302;SDS011;9277;37.980;23.748;2023-11-18T14:05:07;0.80;;;0.80;;
18302;SDS011;9277;37.980;23.748;2023-11-18T14:07:42;0.80;;;0.80;;
18302;SDS011;9277;37.980;23.748;2023-11-18T14:10:10;1.15;;;1.13;;
18302;SDS011;9277;37.980;23.748;2023-11-18T14:12:39;5.05;;;0.88;;
18302;SDS011;9277;37.980;23.748;2023-11-18T14:15:06;0.80;;;0.80;;
18302;SDS011;9277;37.980;23.748;2023-11-18T14:17:35;1.00;;;1.00;;
18302;SDS011;9277;37.980;23.748;2023-11-18T14:20:11;1.45;;;0.90;;
18302;SDS011;9277;37.980;23.748;2023-11-18T14:22:40;1.05;;;0.80;;
18302;SDS011;9277;37.980;23.748;2023-11-18T14:25:08;0.80;;;0.80;;
18302;SDS011;9277;37.980;23.748;2023-11-18T14:27:35;1.08;;;0.85;;
18302;SDS011;9277;37.980;23.748;2023-11-18T14:30:02;0.90;;;0.90;;
18302;SDS011;9277;37.980;23.748;2023-11-18T14:32:33;1.17;;;0.90;;
18302;SDS011;9277;37.980;23.748;2023-11-18T14:35:00;1.02;;;1.00;;
18302;SDS011;9277;37.980;23.748;2023-11-18T14:37:28;3.00;;;0.80;;
18302;SDS011;9277;37.980;23.748;2023-11-18T14:39:57;0.80;;;0.80;;
18302;SDS011;9277;37.980;23.748;2023-11-18T14:42:24;0.88;;;0.80;;
18302;SDS011;9277;37.980;23.748;2023-11-18T14:44:51;0.82;;;0.82;;
18302;SDS011;9277;37.980;23.748;2023-11-18T14:47:18;0.73;;;0.73;;
18302;SDS011;9277;37.980;23.748;2023-11-18T14:49:45;1.65;;;0.90;;
18302;SDS011;9277;37.980;23.748;2023-11-18T14:52:15;0.80;;;0.80;;
18302;SDS011;9277;37.980;23.748;2023-11-18T14:54:47;0.93;;;0.93;;
18302;SDS011;9277;37.980;23.748;2023-11-18T14:57:16;0.90;;;0.90;;
18302;SDS011;9277;37.980;23.748;2023-11-18T14:59:44;1.75;;;1.05;;
18302;SDS011;9277;37.980;23.748;2023-11-18T15:02:11;0.82;;;0.77;;
18302;SDS011;9277;37.980;23.748;2023-11-18T15:04:38;3.70;;;1.10;;
18302;SDS011;9277;37.980;23.748;2023-11-18T15:07:06;0.90;;;0.90;;
18302;SDS011;9277;37.980;23.748;2023-11-18T15:09:33;0.88;;;0.88;;